Last 24 Hours

Red Mountain

10 Minute Data | America/Los_Angeles
as of 9/1/26 9:17 AM PDT
Date & Time Temp (°F) Dew Pt (°F) RH (%) Wind Spd (mph) Wind Dir (°) Wind Gust (mph) Wind Gst Dir (°) Daily Max Temp (°F) Daily Min Temp (°F)
9/1/26 - 0840 65.3 27.7 24 3.9 WSW | 248 5.7 W | 271 67.4 64.2
9/1/26 - 0830 65.4 24.4 21 3.1 SW | 222 5.9 WSW | 255 67.4 64.2
9/1/26 - 0820 65.3 22.3 19 3.8 SSW | 210 5.3 SSW | 204 67.4 64.2
9/1/26 - 0810 65.6 24.8 21 3.9 SSW | 201 5.6 SSW | 212 67.4 64.2
9/1/26 - 0800 66.7 27.4 23 3.1 S | 186 5.7 SSW | 200 67.4 64.2
9/1/26 - 0750 65.2 26.5 23 5.1 SSW | 201 6.9 SW | 214 66.8 64.2
9/1/26 - 0740 65.2 28.5 25 6.0 SSW | 203 6.9 SSW | 212 66.8 64.2
9/1/26 - 0730 65.6 29.7 26 5.8 SSW | 200 6.6 SSW | 199 66.8 64.2
9/1/26 - 0720 66.5 29.4 25 2.4 S | 191 5.0 SSW | 200 66.8 64.2
9/1/26 - 0710 66.1 29.2 25 2.8 S | 182 5.0 SSE | 163 66.3 64.2
9/1/26 - 0700 65.9 25.7 22 2.2 S | 182 3.6 SSW | 198 66.3 64.2
9/1/26 - 0650 65.7 23.0 20 2.9 S | 174 3.5 S | 171 66.3 64.2
9/1/26 - 0640 65.4 24.7 21 3.3 SSE | 166 4.0 S | 173 66.3 64.2
9/1/26 - 0630 65.6 24.4 21 2.6 S | 186 4.1 SSW | 202 66.3 64.2
9/1/26 - 0620 65.8 26.3 23 3.3 SSW | 195 4.9 SSW | 210 66.3 64.2
9/1/26 - 0610 66.0 22.8 19 4.2 SW | 215 5.4 SW | 227 66.3 64.2
9/1/26 - 0600 66.0 24.5 21 4.1 SSW | 210 5.0 SW | 215 66.3 64.2
9/1/26 - 0550 65.8 27.7 24 3.2 S | 188 4.9 SSW | 208 66.3 64.2
9/1/26 - 0540 65.6 29.5 26 3.1 S | 181 4.5 S | 181 66.3 64.2
9/1/26 - 0530 65.4 31.3 28 4.1 SSW | 198 5.4 SSW | 202 66.3 64.2
9/1/26 - 0520 65.5 28.2 24 3.9 SW | 219 5.5 SSW | 209 66.3 64.2
9/1/26 - 0510 65.7 26.0 22 4.3 SW | 233 5.8 SW | 228 66.3 64.2
9/1/26 - 0500 65.8 26.1 22 4.6 SW | 232 5.7 SW | 229 66.3 64.2
9/1/26 - 0450 65.8 25.6 22 5.3 WSW | 237 6.6 WSW | 249 66.3 64.2
9/1/26 - 0440 65.9 25.1 21 5.2 WSW | 239 6.9 SW | 236 66.3 64.2
9/1/26 - 0430 66.1 25.1 21 5.1 SW | 233 6.4 WSW | 246 66.3 64.2
9/1/26 - 0420 66.2 24.1 20 4.5 SW | 228 5.4 SW | 226 66.3 64.2
9/1/26 - 0410 66.2 24.5 20 5.6 SW | 223 7.2 SW | 221 66.3 64.2
9/1/26 - 0400 66.1 25.0 21 5.7 SSW | 207 7.9 SSW | 212 66.2 64.2
9/1/26 - 0350 65.7 26.7 23 4.7 S | 170 7.1 S | 174 66.2 64.2
9/1/26 - 0340 65.7 27.5 24 5.0 SSE | 165 6.9 S | 169 66.2 64.2
9/1/26 - 0330 65.5 29.3 26 5.7 SSE | 162 7.2 SSE | 166 66.2 64.2
9/1/26 - 0320 65.4 29.4 26 6.0 SSE | 163 7.7 SSE | 165 66.2 64.2
9/1/26 - 0310 65.6 30.0 26 5.5 SSE | 160 7.2 S | 171 66.2 64.2
9/1/26 - 0300 65.6 30.2 26 5.3 SSE | 167 6.4 SSE | 168 66.2 64.2
9/1/26 - 0250 66.0 29.2 25 4.9 SSW | 192 7.2 SSW | 195 66.2 64.2
9/1/26 - 0240 66.1 28.6 24 6.8 SSW | 212 8.3 SW | 218 66.2 64.2
9/1/26 - 0230 65.3 31.1 28 6.4 SW | 234 8.2 SW | 224 65.7 64.2
9/1/26 - 0220 65.2 30.9 28 8.1 WSW | 244 11.5 WSW | 242 65.4 64.2
9/1/26 - 0210 65.1 30.4 27 9.2 WSW | 248 11.2 WSW | 246 65.4 64.2
9/1/26 - 0200 65.1 29.8 26 7.8 W | 262 10.7 WSW | 251 65.4 64.2
9/1/26 - 0150 65.1 28.6 25 9.0 W | 279 10.7 W | 277 65.4 64.2
9/1/26 - 0140 65.0 28.4 25 7.9 WNW | 284 10.7 W | 278 65.4 64.2
9/1/26 - 0130 65.1 32.1 29 8.6 W | 263 10.6 W | 262 65.4 64.2
9/1/26 - 0120 64.5 34.9 33 7.2 WSW | 258 9.0 WSW | 256 64.7 64.2
9/1/26 - 0110 64.4 36.3 35 5.5 W | 264 7.5 W | 259 64.5 64.3
9/1/26 - 0100 64.6 36.8 36 5.7 W | 269 7.9 WSW | 258 78.3 64.4
9/1/26 - 0050 65.1 35.3 33 6.2 WNW | 286 7.9 WNW | 290 78.3 64.7
9/1/26 - 0040 65.4 35.0 32 5.1 W | 269 7.9 WSW | 258 78.3 65.2
9/1/26 - 0030 65.5 35.8 33 4.5 WNW | 291 8.3 WNW | 287 78.3 65.2
9/1/26 - 0020 65.4 36.9 35 5.9 WNW | 282 7.4 WNW | 294 78.3 65.3
9/1/26 - 0010 65.5 37.1 35 6.2 W | 259 8.0 WSW | 256 78.3 65.3
9/1/26 - 0000 65.8 37.7 35 6.8 WSW | 244 8.0 WSW | 239 78.3 65.3
8/31/26 - 2350 65.6 38.4 37 7.0 WSW | 245 8.3 WSW | 246 78.3 65.3
8/31/26 - 2340 65.6 38.0 36 5.9 WSW | 249 7.6 WSW | 252 78.3 65.4
8/31/26 - 2330 66.6 33.4 29 6.5 WSW | 250 7.7 WSW | 254 78.3 65.6
8/31/26 - 2320 66.8 31.4 27 4.8 W | 263 6.1 WSW | 249 78.3 65.6
8/31/26 - 2310 67.2 26.8 22 5.1 W | 280 5.7 W | 273 78.3 65.6
8/31/26 - 2300 67.5 25.5 20 6.5 WNW | 286 7.5 WNW | 291 78.3 65.6
8/31/26 - 2250 67.6 25.1 20 6.5 W | 268 7.5 W | 264 78.3 65.6
8/31/26 - 2240 67.6 25.3 20 6.3 WSW | 257 7.3 W | 262 78.3 65.6
8/31/26 - 2230 67.6 25.8 21 6.4 WSW | 250 7.0 WSW | 252 78.3 65.6
8/31/26 - 2220 67.5 26.4 21 6.1 WSW | 244 7.2 WSW | 241 78.3 65.6
8/31/26 - 2210 67.3 27.7 22 3.4 WSW | 241 5.8 SW | 234 78.3 65.6
8/31/26 - 2200 67.1 29.2 24 2.5 SW | 232 3.2 SW | 221 78.3 65.6
8/31/26 - 2150 67.0 28.4 23 2.5 SW | 234 3.4 SW | 217 78.3 65.6
8/31/26 - 2140 66.8 27.6 23 3.4 SSW | 213 4.5 SSW | 213 78.3 65.6
8/31/26 - 2130 66.6 27.2 23 3.2 SSW | 193 4.2 SSW | 204 78.3 65.6
8/31/26 - 2120 66.7 27.3 23 2.5 SSE | 159 3.7 SSE | 160 78.3 65.6
8/31/26 - 2110 67.1 28.0 23 2.0 S | 186 3.7 S | 173 78.3 65.6
8/31/26 - 2100 67.2 26.3 21 1.9 W | 260 3.7 WNW | 299 78.3 65.6
8/31/26 - 2050 67.1 25.9 21 4.0 W | 267 6.7 W | 260 78.3 65.6
8/31/26 - 2040 67.0 25.8 21 5.4 WSW | 252 7.2 WSW | 239 78.3 65.6
8/31/26 - 2030 66.3 29.2 25 5.5 WSW | 246 7.4 WSW | 251 78.3 65.6
8/31/26 - 2020 66.1 31.0 27 6.7 WSW | 239 9.7 SW | 232 78.3 65.6
8/31/26 - 2010 65.9 35.6 32 7.5 SW | 233 10.6 SW | 225 78.3 65.6
8/31/26 - 2000 66.0 36.1 33 6.6 WSW | 238 9.2 SW | 225 78.3 65.9
8/31/26 - 1950 66.1 35.3 32 6.8 WSW | 241 10.0 SW | 236 78.3 65.9
8/31/26 - 1940 66.0 38.2 36 5.7 WSW | 244 8.5 WSW | 242 78.3 65.9
8/31/26 - 1930 66.6 37.3 34 8.1 WSW | 238 13.4 WSW | 242 78.3 66.1
8/31/26 - 1920 67.1 36.9 33 8.4 WSW | 239 12.5 SW | 230 78.3 66.3
8/31/26 - 1910 67.6 37.2 33 9.5 SW | 234 13.8 SW | 228 78.3 66.3
8/31/26 - 1900 68.2 38.7 34 8.6 WSW | 238 13.8 WSW | 240 78.3 66.3
8/31/26 - 1850 69.1 37.6 31 7.6 SW | 230 11.6 SW | 232 78.3 66.3
8/31/26 - 1840 69.0 37.2 31 9.1 SW | 230 13.7 SW | 233 78.3 66.3
8/31/26 - 1830 69.7 35.9 29 9.2 SW | 231 14.4 WSW | 237 78.3 66.3
8/31/26 - 1820 70.1 36.7 30 10.7 SW | 236 16.4 SW | 229 78.3 66.3
8/31/26 - 1810 70.7 37.9 30 10.4 SW | 236 14.8 WSW | 246 78.3 66.3
8/31/26 - 1800 70.3 35.4 28 11.5 SW | 236 17.4 SW | 220 78.3 66.3
8/31/26 - 1750 71.2 35.7 27 11.7 SW | 236 17.1 WSW | 251 78.3 66.3
8/31/26 - 1740 71.4 35.8 27 12.3 SW | 233 17.8 SW | 232 78.3 66.3
8/31/26 - 1730 72.2 38.1 29 13.3 SW | 234 18.5 SW | 235 78.3 66.3
8/31/26 - 1720 72.3 39.9 31 12.1 SW | 236 19.8 WSW | 253 78.3 66.3
8/31/26 - 1710 72.6 43.7 35 12.5 SW | 234 19.5 WSW | 246 78.3 66.3
8/31/26 - 1700 72.7 43.5 35 14.0 SW | 233 20.0 WSW | 248 78.3 66.3
8/31/26 - 1650 73.2 42.4 33 12.7 SW | 231 20.4 WSW | 241 78.3 66.3
8/31/26 - 1640 72.8 43.5 35 14.8 SW | 232 22.0 SW | 231 78.3 66.3
8/31/26 - 1630 73.8 45.1 36 13.8 SW | 230 21.6 SW | 216 78.3 66.3
8/31/26 - 1620 74.3 45.0 35 12.4 SW | 231 21.8 SW | 226 78.3 66.3
8/31/26 - 1610 75.2 43.5 32 14.4 SW | 232 21.3 SW | 214 78.3 66.3
8/31/26 - 1600 74.1 43.6 34 14.2 SW | 229 24.0 WSW | 243 78.3 66.3
8/31/26 - 1550 74.6 43.6 33 14.9 SW | 233 21.6 WSW | 239 78.3 66.3
8/31/26 - 1540 74.7 43.4 33 13.9 SW | 231 22.0 WSW | 238 78.3 66.3
8/31/26 - 1530 75.4 43.0 31 13.9 SW | 231 23.5 WSW | 248 78.3 66.3
8/31/26 - 1520 75.0 43.5 32 14.4 SW | 231 21.4 SW | 235 78.3 66.3
8/31/26 - 1510 75.7 41.6 29 13.2 SW | 230 21.9 SW | 230 78.3 66.3
8/31/26 - 1500 75.2 40.1 28 13.2 SW | 235 20.5 WSW | 249 78.3 66.3
8/31/26 - 1450 74.9 38.1 26 12.5 WSW | 238 20.4 WSW | 243 78.3 66.3
8/31/26 - 1440 74.3 39.7 29 13.9 SW | 233 24.5 SW | 235 78.3 66.3
8/31/26 - 1430 76.2 39.5 27 11.6 SW | 231 22.5 WSW | 252 78.3 66.3
8/31/26 - 1420 75.0 38.6 27 14.4 SW | 234 21.1 WSW | 240 78.3 66.3
8/31/26 - 1410 75.6 37.8 26 10.9 SW | 232 25.1 SW | 231 78.3 66.3
8/31/26 - 1400 74.6 36.1 25 12.5 SW | 230 21.3 SW | 233 77.9 66.3
8/31/26 - 1350 75.0 37.9 26 12.7 SW | 232 22.1 WSW | 244 77.9 66.3
8/31/26 - 1340 74.6 39.0 28 12.3 SW | 226 21.7 WSW | 239 77.9 66.3
8/31/26 - 1330 74.6 39.0 28 11.4 SW | 235 20.1 WSW | 241 77.9 66.3
8/31/26 - 1320 74.9 39.4 28 9.5 SW | 220 18.5 SW | 224 77.9 66.3
8/31/26 - 1310 74.8 39.1 28 11.6 SW | 233 17.7 WSW | 240 77.9 66.3
8/31/26 - 1300 74.4 39.3 28 10.8 SW | 228 19.6 WSW | 245 77.9 66.3
8/31/26 - 1250 74.5 38.8 27 11.8 SW | 232 21.7 SW | 226 77.9 66.3
8/31/26 - 1240 76.0 36.2 24 7.2 SSW | 213 16.1 SSW | 199 77.9 66.3
8/31/26 - 1230 74.7 35.8 24 9.6 SW | 234 17.6 WSW | 246 77.4 66.3
8/31/26 - 1220 73.8 35.6 25 9.8 WSW | 248 21.0 SW | 223 77.2 66.3
8/31/26 - 1210 75.2 36.5 25 8.0 SW | 218 17.5 SW | 226 77.2 66.3
8/31/26 - 1200 74.4 36.6 25 8.6 WSW | 237 17.4 WSW | 252 76.0 66.3
8/31/26 - 1150 74.6 38.2 27 8.0 SW | 235 16.2 W | 264 76.0 66.3
8/31/26 - 1140 74.1 37.7 27 8.6 SW | 229 16.7 WSW | 238 74.9 66.3
8/31/26 - 1130 73.2 39.9 30 9.5 WSW | 244 15.9 SW | 234 74.4 66.3
8/31/26 - 1120 73.3 41.6 32 7.9 SW | 228 17.3 WSW | 241 74.4 66.3
8/31/26 - 1110 71.6 48.7 44 8.5 W | 266 16.6 WSW | 258 74.4 66.3
8/31/26 - 1100 71.2 48.3 44 6.9 W | 270 11.1 W | 261 74.4 66.3
8/31/26 - 1050 71.6 47.2 42 7.3 W | 266 14.7 W | 272 74.4 66.3
8/31/26 - 1040 71.7 44.3 38 8.7 WSW | 255 14.1 SW | 229 74.4 66.3
8/31/26 - 1030 72.9 39.6 30 7.5 WSW | 237 13.7 SW | 232 74.4 66.3
8/31/26 - 1020 72.6 35.1 25 6.7 SW | 224 12.4 WSW | 242 73.6 66.3
8/31/26 - 1010 71.5 34.4 26 6.1 SW | 225 13.5 WSW | 248 72.8 66.3
8/31/26 - 1000 71.2 33.0 24 7.1 SW | 230 12.2 WSW | 245 72.6 66.3
8/31/26 - 0950 72.0 33.0 24 5.7 SW | 232 10.0 SW | 225 72.6 66.3
8/31/26 - 0940 71.3 31.9 23 5.8 SW | 219 9.4 SW | 227 71.8 66.3
8/31/26 - 0930 70.9 29.2 21 5.1 SW | 226 8.6 SW | 220 71.8 66.3
8/31/26 - 0920 70.9 26.6 19 3.9 SW | 220 8.0 SW | 230 71.3 66.3
8/31/26 - 0910 70.4 23.2 17 3.6 SW | 230 7.2 SW | 217 70.8 66.3
Max 76.2 48.7 44 14.9 - 25.1 - 78.3 66.3
Avg 69.0 33.4 27 7.4 - 11.5 - - -
Min 64.4 22.3 17 1.9 - 3.2 - 64.5 64.2